createdAt,value
2023-05-16T00:02:20.074Z,11.70
2023-05-16T00:04:50.246Z,11.66
2023-05-16T00:07:20.196Z,11.66
2023-05-16T00:09:51.848Z,11.65
2023-05-16T00:12:22.987Z,11.62
2023-05-16T00:14:53.231Z,11.60
2023-05-16T00:17:23.166Z,11.57
2023-05-16T00:19:58.446Z,11.56
2023-05-16T00:22:28.131Z,11.55
2023-05-16T00:24:59.831Z,11.54
2023-05-16T00:27:29.407Z,11.54
2023-05-16T00:29:59.423Z,11.52
2023-05-16T00:32:29.319Z,11.52
2023-05-16T00:34:59.481Z,11.49
2023-05-16T00:37:29.226Z,11.54
2023-05-16T00:40:00.612Z,11.49
2023-05-16T00:42:30.224Z,11.45
2023-05-16T00:45:01.143Z,11.42
2023-05-16T00:47:31.614Z,11.41
2023-05-16T00:50:01.911Z,11.40
2023-05-16T00:52:33.352Z,11.41
2023-05-16T00:55:05.348Z,11.41
2023-05-16T00:57:35.208Z,11.39
2023-05-16T01:00:07.123Z,11.39
2023-05-16T01:02:39.697Z,11.38
2023-05-16T01:05:10.397Z,11.37
2023-05-16T01:07:40.213Z,11.38
2023-05-16T01:10:13.121Z,11.32
2023-05-16T01:12:47.632Z,11.30
2023-05-16T01:15:23.516Z,11.31
2023-05-16T01:17:57.025Z,11.32
2023-05-16T01:20:32.054Z,11.34
2023-05-16T01:23:08.676Z,11.34
2023-05-16T01:25:47.862Z,11.28
2023-05-16T01:28:19.613Z,11.28
2023-05-16T01:30:49.573Z,11.28
2023-05-16T01:33:19.252Z,11.25
2023-05-16T01:35:54.700Z,11.21
2023-05-16T01:38:27.794Z,11.23
2023-05-16T01:41:01.797Z,11.19
2023-05-16T01:43:37.074Z,11.18
2023-05-16T01:46:11.374Z,11.15
2023-05-16T01:48:44.998Z,11.13
2023-05-16T01:51:15.633Z,11.12
2023-05-16T01:53:45.809Z,11.11
2023-05-16T01:56:17.528Z,11.17
2023-05-16T01:58:50.056Z,11.16
2023-05-16T02:01:21.024Z,11.13
2023-05-16T02:03:51.478Z,11.12
2023-05-16T02:06:21.955Z,11.11
2023-05-16T02:08:52.165Z,11.09
2023-05-16T02:11:22.480Z,11.13
2023-05-16T02:13:53.534Z,11.12
2023-05-16T02:16:23.762Z,11.12
2023-05-16T02:18:53.639Z,11.12
2023-05-16T02:21:23.787Z,11.14
2023-05-16T02:23:53.543Z,11.14
2023-05-16T02:26:23.582Z,11.15
2023-05-16T02:28:54.779Z,11.16
2023-05-16T02:31:28.694Z,11.12
2023-05-16T02:33:58.753Z,11.13
2023-05-16T02:36:29.111Z,11.12
2023-05-16T02:38:58.774Z,11.13
2023-05-16T02:41:28.891Z,11.16
2023-05-16T02:44:00.171Z,11.16
2023-05-16T02:46:31.087Z,11.17
2023-05-16T02:49:00.973Z,11.17
2023-05-16T02:51:31.197Z,11.14
2023-05-16T02:54:01.833Z,11.15
2023-05-16T02:56:32.247Z,11.16
2023-05-16T02:59:04.725Z,11.18
2023-05-16T03:01:34.973Z,11.18
2023-05-16T03:04:04.753Z,11.17
2023-05-16T03:06:35.192Z,11.19
2023-05-16T03:09:05.048Z,11.17
2023-05-16T03:11:36.388Z,11.16
2023-05-16T03:14:08.746Z,11.17
2023-05-16T03:16:40.408Z,11.17
2023-05-16T03:19:10.381Z,11.20
2023-05-16T03:21:40.395Z,11.17
2023-05-16T03:24:10.625Z,11.19
2023-05-16T03:26:40.832Z,11.19
2023-05-16T03:29:12.061Z,11.16
2023-05-16T03:31:42.653Z,11.20
2023-05-16T03:34:12.594Z,11.20
2023-05-16T03:36:43.220Z,11.22
2023-05-16T03:39:12.964Z,11.16
2023-05-16T03:41:42.935Z,11.15
2023-05-16T03:44:14.335Z,11.15
2023-05-16T03:46:44.613Z,11.13
2023-05-16T03:49:14.452Z,11.08
2023-05-16T03:51:44.668Z,11.11
2023-05-16T03:54:15.336Z,11.10
2023-05-16T03:56:45.393Z,11.09
2023-05-16T03:59:17.252Z,11.03
2023-05-16T04:01:47.310Z,10.99
2023-05-16T04:04:17.142Z,10.97
2023-05-16T04:06:47.092Z,10.94
2023-05-16T04:09:17.385Z,10.88
2023-05-16T04:11:47.501Z,10.83
2023-05-16T04:14:18.722Z,10.78
2023-05-16T04:16:48.868Z,10.75
2023-05-16T04:19:18.846Z,10.70
2023-05-16T04:21:49.371Z,10.71
2023-05-16T04:24:19.057Z,10.68
2023-05-16T04:26:49.187Z,10.66
2023-05-16T04:29:20.325Z,10.71
2023-05-16T04:31:50.575Z,10.73
2023-05-16T04:34:20.566Z,10.74
2023-05-16T04:36:50.555Z,10.80
2023-05-16T04:39:20.288Z,10.81
2023-05-16T04:41:50.375Z,10.83
2023-05-16T04:44:21.760Z,10.89
2023-05-16T04:46:53.247Z,10.83
2023-05-16T04:49:23.125Z,10.76
2023-05-16T04:51:53.340Z,10.78
2023-05-16T04:54:23.229Z,10.75
2023-05-16T04:56:53.261Z,10.68
2023-05-16T04:59:24.757Z,10.60
2023-05-16T05:01:54.927Z,10.68
2023-05-16T05:04:24.866Z,10.69
2023-05-16T05:06:54.876Z,10.61
2023-05-16T05:09:24.833Z,10.60
2023-05-16T05:11:54.948Z,10.68
2023-05-16T05:14:26.176Z,10.70
2023-05-16T05:16:56.337Z,10.78
2023-05-16T05:19:26.258Z,10.80
2023-05-16T05:21:56.547Z,10.84
2023-05-16T05:24:26.429Z,10.82
2023-05-16T05:26:56.548Z,10.87
2023-05-16T05:29:27.906Z,10.75
2023-05-16T05:31:58.087Z,10.79
2023-05-16T05:34:27.962Z,10.82
2023-05-16T05:36:58.260Z,10.78
2023-05-16T05:39:28.037Z,10.77
2023-05-16T05:41:59.087Z,10.75
2023-05-16T05:44:30.369Z,10.81
2023-05-16T05:47:00.502Z,10.77
2023-05-16T05:49:30.393Z,10.76
2023-05-16T05:52:00.310Z,10.68
2023-05-16T05:54:30.556Z,10.72
2023-05-16T05:57:00.684Z,10.65
2023-05-16T05:59:31.974Z,10.71
2023-05-16T06:02:02.067Z,10.77
2023-05-16T06:04:31.766Z,10.77
2023-05-16T06:07:01.969Z,10.80
2023-05-16T06:09:31.811Z,10.84
2023-05-16T06:12:02.425Z,10.84
2023-05-16T06:14:33.687Z,10.87
2023-05-16T06:17:03.970Z,10.81
2023-05-16T06:19:33.730Z,10.82
2023-05-16T06:22:03.938Z,10.81
2023-05-16T06:24:33.616Z,10.75
2023-05-16T06:27:03.658Z,10.75
2023-05-16T06:29:34.746Z,10.69
2023-05-16T06:32:04.904Z,10.65
2023-05-16T06:34:34.487Z,10.60
2023-05-16T06:37:05.275Z,10.65
2023-05-16T06:39:35.030Z,10.62
2023-05-16T06:42:05.247Z,10.70
2023-05-16T06:44:36.972Z,10.65
2023-05-16T06:47:07.249Z,10.66
2023-05-16T06:49:37.148Z,10.71
2023-05-16T06:52:08.527Z,10.77
2023-05-16T06:54:38.781Z,10.91
2023-05-16T06:57:09.423Z,10.99
2023-05-16T06:59:40.868Z,11.02
2023-05-16T07:02:11.218Z,11.13
2023-05-16T07:04:41.148Z,11.20
2023-05-16T07:07:11.355Z,11.10
2023-05-16T07:09:41.747Z,11.17
2023-05-16T07:12:12.436Z,10.95
2023-05-16T07:14:43.941Z,10.99
2023-05-16T07:17:14.229Z,10.91
2023-05-16T07:19:44.088Z,10.86
2023-05-16T07:22:14.462Z,10.87
2023-05-16T07:24:44.612Z,10.87
2023-05-16T07:27:15.028Z,10.91
2023-05-16T07:29:46.354Z,10.99
2023-05-16T07:32:17.027Z,11.15
2023-05-16T07:34:46.914Z,11.20
2023-05-16T07:37:17.145Z,11.26
2023-05-16T07:39:46.944Z,11.25
2023-05-16T07:42:18.233Z,11.32
2023-05-16T07:44:49.512Z,11.26
2023-05-16T07:47:19.842Z,11.23
2023-05-16T07:49:49.767Z,11.23
2023-05-16T07:52:20.041Z,11.18
2023-05-16T07:54:49.990Z,11.10
2023-05-16T07:57:20.243Z,11.19
2023-05-16T07:59:53.497Z,11.17
2023-05-16T08:02:25.272Z,11.16
2023-05-16T08:04:55.303Z,11.22
2023-05-16T08:07:26.131Z,11.24
2023-05-16T08:09:56.027Z,11.29
2023-05-16T08:12:27.323Z,11.42
2023-05-16T08:14:58.466Z,11.55
2023-05-16T08:17:28.615Z,11.54
2023-05-16T08:19:59.653Z,11.50
2023-05-16T08:22:30.114Z,11.60
2023-05-16T08:25:00.910Z,11.69
2023-05-16T08:27:31.295Z,11.66
2023-05-16T08:30:02.594Z,11.73
2023-05-16T08:32:33.100Z,11.70
2023-05-16T08:35:03.132Z,11.76
2023-05-16T08:37:34.212Z,11.95
2023-05-16T08:40:05.558Z,11.89
2023-05-16T08:42:35.993Z,11.96
2023-05-16T08:45:08.482Z,11.98
2023-05-16T08:47:41.760Z,12.01
2023-05-16T08:50:12.206Z,11.92
2023-05-16T08:52:43.818Z,11.84
2023-05-16T08:55:15.408Z,11.87
2023-05-16T08:57:46.207Z,11.89
2023-05-16T09:00:19.728Z,11.92
2023-05-16T09:02:50.381Z,12.12
2023-05-16T09:05:20.504Z,12.31
2023-05-16T09:07:50.801Z,12.37
2023-05-16T09:10:21.444Z,12.48
2023-05-16T09:12:51.592Z,12.62
2023-05-16T09:15:23.964Z,12.72
2023-05-16T09:17:54.201Z,12.67
2023-05-16T09:20:24.238Z,12.81
2023-05-16T09:22:55.337Z,12.79
2023-05-16T09:27:59.250Z,12.76
2023-05-16T09:30:31.916Z,12.81
2023-05-16T09:33:02.116Z,12.99
2023-05-16T09:38:06.155Z,13.06
2023-05-16T09:40:36.132Z,13.11
2023-05-16T09:43:07.098Z,13.32
2023-05-16T09:45:38.351Z,13.16
2023-05-16T09:48:09.831Z,13.08
2023-05-16T09:50:39.719Z,13.05
2023-05-16T09:53:10.135Z,12.95
2023-05-16T09:55:39.859Z,12.93
2023-05-16T09:58:09.973Z,12.92
2023-05-16T10:00:41.419Z,12.92
2023-05-16T10:03:12.171Z,12.87
2023-05-16T10:05:42.088Z,12.83
2023-05-16T10:08:13.164Z,12.73
2023-05-16T10:10:43.274Z,12.67
2023-05-16T10:13:14.378Z,12.78
2023-05-16T10:15:46.958Z,13.04
2023-05-16T10:18:18.728Z,13.52
2023-05-16T10:20:51.251Z,13.90
2023-05-16T10:23:22.893Z,13.83
2023-05-16T10:25:53.433Z,13.94
2023-05-16T10:28:23.841Z,14.08
2023-05-16T10:30:55.671Z,13.81
2023-05-16T10:33:26.519Z,13.89
2023-05-16T10:35:57.299Z,14.05
2023-05-16T10:38:28.446Z,13.94
2023-05-16T10:40:58.490Z,14.29
2023-05-16T10:43:30.791Z,14.93
2023-05-16T10:46:04.647Z,14.93
2023-05-16T10:48:35.566Z,15.01
2023-05-16T10:51:06.201Z,14.63
2023-05-16T10:53:37.221Z,14.53
2023-05-16T10:56:09.302Z,14.66
2023-05-16T10:58:44.518Z,14.73
2023-05-16T11:01:22.895Z,14.81
2023-05-16T11:04:10.696Z,14.57
2023-05-16T11:06:53.925Z,14.68
2023-05-16T11:09:26.859Z,14.70
2023-05-16T11:11:57.714Z,14.74
2023-05-16T11:14:29.237Z,15.01
2023-05-16T11:17:04.377Z,15.42
2023-05-16T11:19:35.856Z,15.62
2023-05-16T11:22:12.238Z,15.33
2023-05-16T11:24:50.670Z,14.98
2023-05-16T11:27:25.078Z,14.93
2023-05-16T11:29:56.627Z,14.69
2023-05-16T11:32:28.139Z,14.49
2023-05-16T11:34:59.838Z,14.39
2023-05-16T11:37:30.016Z,14.57
2023-05-16T11:40:00.892Z,14.71
2023-05-16T11:42:31.808Z,14.85
2023-05-16T11:45:06.460Z,15.03
2023-05-16T11:47:38.002Z,14.94
2023-05-16T11:50:10.294Z,14.88
2023-05-16T11:52:40.537Z,14.93
2023-05-16T11:55:11.990Z,14.91
2023-05-16T11:57:42.414Z,15.08
2023-05-16T12:00:16.656Z,15.18
2023-05-16T12:02:48.479Z,15.05
2023-05-16T12:05:20.778Z,14.87
2023-05-16T12:07:50.794Z,14.90
2023-05-16T12:10:21.197Z,14.97
2023-05-16T12:12:53.333Z,15.10
2023-05-16T12:15:24.168Z,14.99
2023-05-16T12:17:55.657Z,15.10
2023-05-16T12:20:26.480Z,15.01
2023-05-16T12:22:59.174Z,14.81
2023-05-16T12:25:31.122Z,14.79
2023-05-16T12:28:01.946Z,14.59
2023-05-16T12:30:32.954Z,14.58
2023-05-16T12:33:07.947Z,14.39
2023-05-16T12:35:40.257Z,14.29
2023-05-16T12:38:10.887Z,14.18
2023-05-16T12:40:41.780Z,14.10
2023-05-16T12:43:15.189Z,14.16
2023-05-16T12:45:51.070Z,14.23
2023-05-16T12:48:22.411Z,14.05
2023-05-16T12:50:53.816Z,14.05
2023-05-16T12:53:23.518Z,14.22
2023-05-16T12:55:53.686Z,14.40
2023-05-16T12:58:23.467Z,14.40
2023-05-16T13:00:53.672Z,14.19
2023-05-16T13:03:24.961Z,14.01
2023-05-16T13:05:55.190Z,13.84
2023-05-16T13:08:25.140Z,13.62
2023-05-16T13:10:55.446Z,13.54
2023-05-16T13:13:36.013Z,13.46
2023-05-16T13:16:07.362Z,13.41
2023-05-16T13:18:38.678Z,13.41
2023-05-16T13:21:08.935Z,13.31
2023-05-16T13:23:38.790Z,13.25
2023-05-16T13:26:09.062Z,13.19
2023-05-16T13:28:39.210Z,13.20
2023-05-16T13:31:10.303Z,13.06
2023-05-16T13:33:42.332Z,13.08
2023-05-16T13:36:12.634Z,13.08
2023-05-16T13:38:42.842Z,12.98
2023-05-16T13:41:13.361Z,12.92
2023-05-16T13:43:43.269Z,12.98
2023-05-16T13:46:13.665Z,12.92
2023-05-16T13:48:46.872Z,13.07
2023-05-16T13:51:17.654Z,12.90
2023-05-16T13:53:48.097Z,12.91
2023-05-16T13:56:18.762Z,12.96
2023-05-16T13:59:01.135Z,12.95
2023-05-16T14:01:38.100Z,12.89
2023-05-16T14:04:10.090Z,12.76
2023-05-16T14:06:41.503Z,12.76
2023-05-16T14:09:13.373Z,12.70
2023-05-16T14:11:45.532Z,12.69
2023-05-16T14:14:15.751Z,12.62
2023-05-16T14:16:47.074Z,12.60
2023-05-16T14:19:22.766Z,12.63
2023-05-16T14:21:59.392Z,12.61
2023-05-16T14:24:31.694Z,12.65
2023-05-16T14:27:03.741Z,12.69
2023-05-16T14:29:36.985Z,12.75
2023-05-16T14:32:16.966Z,12.77
2023-05-16T14:34:52.071Z,12.90
2023-05-16T14:37:27.198Z,12.66
2023-05-16T14:39:59.690Z,12.66
2023-05-16T14:42:32.682Z,12.73
2023-05-16T14:45:03.344Z,12.79
2023-05-16T14:47:33.605Z,12.83
2023-05-16T14:50:05.092Z,12.72
2023-05-16T14:52:35.518Z,12.69
2023-05-16T14:55:05.522Z,12.62
2023-05-16T14:57:36.858Z,12.58
2023-05-16T15:00:07.899Z,12.48
2023-05-16T15:02:38.158Z,12.57
2023-05-16T15:05:10.293Z,12.45
2023-05-16T15:07:40.642Z,12.48
2023-05-16T15:10:10.937Z,12.53
2023-05-16T15:12:44.020Z,12.51
2023-05-16T15:15:16.339Z,12.40
2023-05-16T15:17:47.627Z,12.33
2023-05-16T15:20:21.104Z,12.34
2023-05-16T15:22:52.762Z,12.16
2023-05-16T15:25:23.200Z,12.22
2023-05-16T15:27:53.349Z,12.07
2023-05-16T15:30:23.886Z,12.03
2023-05-16T15:32:54.844Z,12.07
2023-05-16T15:35:26.791Z,12.15
2023-05-16T15:38:00.313Z,12.43
2023-05-16T15:40:30.561Z,12.61
2023-05-16T15:43:00.676Z,12.57
2023-05-16T15:45:30.668Z,12.53
2023-05-16T15:48:01.222Z,12.48
2023-05-16T15:50:32.602Z,12.31
2023-05-16T15:53:03.414Z,12.27
2023-05-16T15:55:42.327Z,12.24
2023-05-16T15:58:44.402Z,12.11
2023-05-16T16:01:30.010Z,12.05
2023-05-16T16:04:03.380Z,11.95
2023-05-16T16:09:47.452Z,11.82
2023-05-16T16:12:25.588Z,11.81
2023-05-16T16:15:06.122Z,11.84
2023-05-16T16:18:19.336Z,11.80
2023-05-16T16:20:50.212Z,11.95
2023-05-16T16:23:28.830Z,11.82
2023-05-16T16:25:59.853Z,11.71
2023-05-16T16:28:30.543Z,11.66
2023-05-16T16:31:01.436Z,11.59
2023-05-16T16:33:42.414Z,11.61
2023-05-16T16:36:13.788Z,11.62
2023-05-16T16:38:45.914Z,11.61
2023-05-16T16:41:17.439Z,11.59
2023-05-16T16:43:56.912Z,11.54
2023-05-16T16:46:36.887Z,11.54
2023-05-16T16:49:21.623Z,11.61
2023-05-16T16:52:01.418Z,11.47
2023-05-16T16:54:36.895Z,11.53
2023-05-16T16:57:10.015Z,11.53
2023-05-16T16:59:44.363Z,11.50
2023-05-16T17:02:26.725Z,11.53
2023-05-16T17:05:42.682Z,11.52
2023-05-16T17:08:29.860Z,11.46
2023-05-16T17:11:18.114Z,11.49
2023-05-16T17:14:02.792Z,11.48
2023-05-16T17:16:33.408Z,11.30
2023-05-16T17:19:04.962Z,11.24
2023-05-16T17:21:37.134Z,11.22
2023-05-16T17:24:07.841Z,11.22
2023-05-16T17:26:39.441Z,11.08
2023-05-16T17:29:09.839Z,11.01
2023-05-16T17:31:39.893Z,11.01
2023-05-16T17:34:10.734Z,11.01
2023-05-16T17:36:41.768Z,11.05
2023-05-16T17:39:12.131Z,11.07
2023-05-16T17:41:44.764Z,11.05
2023-05-16T17:44:15.713Z,11.01
2023-05-16T17:46:48.901Z,10.93
2023-05-16T17:49:42.309Z,10.94
2023-05-16T17:52:12.703Z,10.96
2023-05-16T17:54:42.882Z,11.00
2023-05-16T17:57:14.681Z,10.84
2023-05-16T17:59:45.467Z,10.81
2023-05-16T18:02:18.074Z,10.82
2023-05-16T18:04:48.598Z,10.82
2023-05-16T18:07:18.394Z,10.80
2023-05-16T18:09:48.667Z,10.77
2023-05-16T18:12:20.060Z,10.76
2023-05-16T18:14:52.619Z,10.75
2023-05-16T18:17:23.319Z,10.65
2023-05-16T18:19:55.516Z,10.60
2023-05-16T18:22:25.948Z,10.56
2023-05-16T18:24:56.229Z,10.51
2023-05-16T18:27:27.409Z,10.47
2023-05-16T18:29:57.835Z,10.47
2023-05-16T18:32:27.704Z,10.44
2023-05-16T18:34:57.896Z,10.42
2023-05-16T18:37:27.849Z,10.39
2023-05-16T18:39:57.964Z,10.29
2023-05-16T18:42:29.214Z,10.28
2023-05-16T18:44:59.253Z,10.27
2023-05-16T18:47:29.550Z,10.25
2023-05-16T18:49:59.783Z,10.23
2023-05-16T18:52:29.826Z,10.21
2023-05-16T18:55:00.209Z,10.19
2023-05-16T18:57:31.608Z,10.18
2023-05-16T19:00:03.151Z,10.13
2023-05-16T19:02:42.054Z,10.07
2023-05-16T19:05:14.661Z,10.04
2023-05-16T19:07:44.717Z,9.99
2023-05-16T19:10:14.813Z,9.95
2023-05-16T19:12:49.325Z,9.97
2023-05-16T19:15:19.702Z,9.89
2023-05-16T19:17:49.613Z,9.86
2023-05-16T19:20:19.916Z,9.87
2023-05-16T19:22:52.059Z,9.78
2023-05-16T19:25:23.088Z,9.74
2023-05-16T19:27:54.254Z,9.72
2023-05-16T19:30:26.091Z,9.72
2023-05-16T19:32:58.177Z,9.48
2023-05-16T19:35:29.463Z,9.70
2023-05-16T19:37:59.351Z,9.63
2023-05-16T19:40:31.402Z,9.62
2023-05-16T19:43:04.927Z,9.65
2023-05-16T19:45:36.947Z,9.64
2023-05-16T19:48:08.571Z,9.62
2023-05-16T19:50:38.980Z,9.67
2023-05-16T19:53:08.792Z,9.57
2023-05-16T19:55:39.351Z,9.63
2023-05-16T19:58:10.631Z,9.58
2023-05-16T20:00:41.688Z,9.57
2023-05-16T20:03:11.781Z,9.57
2023-05-16T20:05:41.971Z,9.52
2023-05-16T20:08:12.340Z,9.49
2023-05-16T20:10:42.540Z,9.46
2023-05-16T20:13:15.486Z,9.52
2023-05-16T20:15:45.770Z,9.53
2023-05-16T20:18:15.570Z,9.56
2023-05-16T20:20:45.908Z,9.48
2023-05-16T20:23:15.704Z,9.44
2023-05-16T20:25:47.510Z,9.45
2023-05-16T20:28:21.716Z,9.44
2023-05-16T20:30:53.262Z,9.42
2023-05-16T20:33:23.010Z,9.43
2023-05-16T20:35:55.288Z,9.40
2023-05-16T20:38:25.414Z,9.34
2023-05-16T20:40:55.579Z,9.32
2023-05-16T20:43:28.333Z,9.27
2023-05-16T20:45:58.925Z,9.20
2023-05-16T20:48:29.019Z,9.19
2023-05-16T20:51:01.676Z,9.17
2023-05-16T20:53:32.468Z,9.12
2023-05-16T20:56:03.198Z,9.10
2023-05-16T20:58:34.507Z,9.07
2023-05-16T21:01:04.992Z,9.06
2023-05-16T21:03:34.799Z,9.02
2023-05-16T21:06:05.433Z,8.99
2023-05-16T21:08:35.388Z,8.97
2023-05-16T21:11:05.645Z,8.94
2023-05-16T21:13:36.933Z,8.92
2023-05-16T21:16:07.606Z,8.78
2023-05-16T21:18:37.373Z,8.73
2023-05-16T21:21:07.669Z,8.55
2023-05-16T21:23:37.435Z,8.52
2023-05-16T21:26:07.670Z,8.46
2023-05-16T21:28:42.760Z,8.34
2023-05-16T21:31:24.391Z,8.20
2023-05-16T21:33:54.485Z,8.16
2023-05-16T21:36:24.659Z,8.14
2023-05-16T21:38:54.317Z,8.05
2023-05-16T21:41:24.573Z,7.91
2023-05-16T21:43:55.672Z,7.95
2023-05-16T21:46:25.872Z,7.96
2023-05-16T21:48:56.077Z,7.99
2023-05-16T21:51:26.400Z,8.04
2023-05-16T21:53:56.138Z,8.05
2023-05-16T21:56:28.033Z,7.98
2023-05-16T21:58:59.314Z,7.98
2023-05-16T22:01:29.811Z,8.08
2023-05-16T22:03:59.788Z,8.14
2023-05-16T22:06:31.326Z,8.09
2023-05-16T22:09:01.884Z,8.09
2023-05-16T22:11:32.128Z,8.12
2023-05-16T22:14:03.357Z,8.03
2023-05-16T22:16:33.623Z,8.00
2023-05-16T22:19:03.705Z,7.99
2023-05-16T22:21:33.924Z,7.91
2023-05-16T22:24:03.743Z,7.80
2023-05-16T22:26:33.876Z,7.83
2023-05-16T22:29:05.026Z,7.75
2023-05-16T22:31:35.150Z,7.66
2023-05-16T22:34:05.184Z,7.73
2023-05-16T22:36:35.559Z,7.68
2023-05-16T22:39:06.519Z,7.67
2023-05-16T22:41:36.577Z,7.66
2023-05-16T22:44:07.896Z,7.57
2023-05-16T22:46:38.001Z,7.43
2023-05-16T22:49:07.936Z,7.42
2023-05-16T22:51:38.112Z,7.39
2023-05-16T22:54:07.901Z,7.29
2023-05-16T22:56:37.994Z,7.40
2023-05-16T22:59:09.464Z,7.48
2023-05-16T23:01:39.603Z,7.48
2023-05-16T23:04:09.521Z,7.44
2023-05-16T23:06:39.857Z,7.27
2023-05-16T23:09:09.612Z,7.28
2023-05-16T23:11:39.867Z,7.17
2023-05-16T23:14:11.158Z,7.22
2023-05-16T23:16:41.397Z,7.21
2023-05-16T23:19:11.389Z,7.18
2023-05-16T23:21:43.177Z,7.17
2023-05-16T23:24:13.038Z,7.16
2023-05-16T23:26:43.098Z,7.17
2023-05-16T23:29:14.221Z,7.22
2023-05-16T23:31:44.407Z,7.26
2023-05-16T23:34:14.290Z,7.14
2023-05-16T23:36:44.547Z,7.19
2023-05-16T23:39:14.325Z,7.22
2023-05-16T23:41:44.479Z,7.22
2023-05-16T23:44:15.778Z,7.26
2023-05-16T23:46:45.910Z,7.26
2023-05-16T23:49:15.657Z,7.25
2023-05-16T23:54:22.413Z,7.19
2023-05-16T23:56:52.717Z,7.17
2023-05-16T23:59:23.917Z,7.17
